createdAt,value
2023-01-13T00:00:23.523Z,98028.23
2023-01-13T00:01:45.818Z,98028.50
2023-01-13T00:02:48.006Z,98025.73
2023-01-13T00:03:50.078Z,98022.09
2023-01-13T00:04:52.028Z,98022.66
2023-01-13T00:05:53.886Z,98021.34
2023-01-13T00:06:55.768Z,98019.27
2023-01-13T00:07:57.547Z,98016.60
2023-01-13T00:08:59.486Z,98014.94
2023-01-13T00:10:01.409Z,98017.72
2023-01-13T00:11:03.297Z,98017.12
2023-01-13T00:12:06.593Z,98019.54
2023-01-13T00:13:08.439Z,98021.83
2023-01-13T00:14:10.340Z,98016.91
2023-01-13T00:15:13.390Z,98019.61
2023-01-13T00:16:18.318Z,98021.33
2023-01-13T00:17:20.197Z,98024.23
2023-01-13T00:18:22.079Z,98020.69
2023-01-13T00:19:23.855Z,98019.56
2023-01-13T00:20:25.663Z,98017.77
2023-01-13T00:21:27.527Z,98016.20
2023-01-13T00:22:29.478Z,98014.91
2023-01-13T00:23:33.764Z,98013.13
2023-01-13T00:24:35.835Z,98012.05
2023-01-13T00:25:37.664Z,98009.83
2023-01-13T00:26:39.398Z,98008.48
2023-01-13T00:27:42.182Z,98006.71
2023-01-13T00:28:44.299Z,98007.14
2023-01-13T00:29:46.320Z,98004.77
2023-01-13T00:30:48.247Z,98004.50
2023-01-13T00:31:50.577Z,98003.82
2023-01-13T00:32:52.805Z,98004.20
2023-01-13T00:33:57.918Z,98003.61
2023-01-13T00:34:59.775Z,98006.19
2023-01-13T00:36:02.887Z,98006.61
2023-01-13T00:37:04.729Z,98005.05
2023-01-13T00:38:06.665Z,98002.10
2023-01-13T00:39:08.525Z,98002.63
2023-01-13T00:40:11.251Z,98003.45
2023-01-13T00:41:22.738Z,97999.09
2023-01-13T00:42:43.072Z,98005.15
2023-01-13T00:43:45.651Z,98007.23
2023-01-13T00:44:47.734Z,98002.96
2023-01-13T00:45:51.625Z,98005.16
2023-01-13T00:46:53.501Z,98006.83
2023-01-13T00:47:55.383Z,98004.20
2023-01-13T00:48:57.167Z,98008.11
2023-01-13T00:49:59.078Z,98005.77
2023-01-13T00:51:11.460Z,97999.77
2023-01-13T00:52:16.536Z,97997.83
2023-01-13T00:53:18.801Z,97997.35
2023-01-13T00:54:20.611Z,97999.97
2023-01-13T00:55:22.411Z,97997.49
2023-01-13T00:56:39.584Z,97993.85
2023-01-13T00:57:43.062Z,97989.95
2023-01-13T00:58:46.542Z,97993.73
2023-01-13T00:59:49.619Z,97990.64
2023-01-13T01:00:51.777Z,97988.66
2023-01-13T01:01:53.969Z,97988.20
2023-01-13T01:02:56.320Z,97983.42
2023-01-13T01:03:58.192Z,97981.00
2023-01-13T01:05:00.975Z,97980.73
2023-01-13T01:06:26.880Z,97980.12
2023-01-13T01:07:28.768Z,97980.49
2023-01-13T01:08:30.601Z,97975.95
2023-01-13T01:09:34.690Z,97975.25
2023-01-13T01:10:36.569Z,97969.73
2023-01-13T01:11:38.364Z,97967.96
2023-01-13T01:12:40.260Z,97969.80
2023-01-13T01:13:43.207Z,97971.89
2023-01-13T01:14:45.258Z,97969.11
2023-01-13T01:15:48.058Z,97970.04
2023-01-13T01:16:49.921Z,97965.76
2023-01-13T01:17:51.718Z,97963.67
2023-01-13T01:18:55.471Z,97966.32
2023-01-13T01:19:57.308Z,97962.67
2023-01-13T01:21:03.529Z,97963.42
2023-01-13T01:22:05.625Z,97961.39
2023-01-13T01:23:07.436Z,97961.25
2023-01-13T01:24:09.679Z,97958.52
2023-01-13T01:25:11.539Z,97958.85
2023-01-13T01:26:16.964Z,97957.09
2023-01-13T01:27:19.014Z,97955.92
2023-01-13T01:28:21.318Z,97954.76
2023-01-13T01:29:23.172Z,97956.10
2023-01-13T01:30:24.958Z,97959.12
2023-01-13T01:31:31.616Z,97956.02
2023-01-13T01:32:34.765Z,97952.30
2023-01-13T01:33:36.890Z,97955.64
2023-01-13T01:34:39.279Z,97952.70
2023-01-13T01:35:41.633Z,97952.16
2023-01-13T01:36:43.980Z,97946.81
2023-01-13T01:37:45.857Z,97949.21
2023-01-13T01:38:49.406Z,97950.30
2023-01-13T01:39:51.285Z,97948.97
2023-01-13T01:40:53.143Z,97949.20
2023-01-13T01:42:13.525Z,97950.43
2023-01-13T01:43:37.517Z,97950.13
2023-01-13T01:44:42.819Z,97948.58
2023-01-13T01:45:44.660Z,97944.23
2023-01-13T01:46:46.585Z,97945.50
2023-01-13T01:47:53.547Z,97944.98
2023-01-13T01:49:02.787Z,97944.83
2023-01-13T01:50:05.595Z,97946.73
2023-01-13T01:51:12.917Z,97944.54
2023-01-13T01:52:44.534Z,97940.59
2023-01-13T01:53:49.721Z,97937.16
2023-01-13T01:55:20.866Z,97935.41
2023-01-13T01:56:26.319Z,97938.80
2023-01-13T01:57:43.869Z,97936.61
2023-01-13T01:58:51.202Z,97934.34
2023-01-13T01:59:54.154Z,97933.45
2023-01-13T02:00:56.189Z,97931.25
2023-01-13T02:01:59.004Z,97928.57
2023-01-13T02:03:01.646Z,97928.41
2023-01-13T02:04:24.452Z,97924.61
2023-01-13T02:05:26.874Z,97924.02
2023-01-13T02:06:30.522Z,97928.08
2023-01-13T02:07:35.973Z,97924.66
2023-01-13T02:08:40.447Z,97929.95
2023-01-13T02:09:42.994Z,97929.51
2023-01-13T02:10:53.301Z,97928.44
2023-01-13T02:12:13.877Z,97928.52
2023-01-13T02:13:15.996Z,97932.82
2023-01-13T02:14:23.768Z,97933.08
2023-01-13T02:15:48.630Z,97932.69
2023-01-13T02:17:10.821Z,97931.50
2023-01-13T02:18:39.815Z,97928.23
2023-01-13T02:20:10.866Z,97932.05
2023-01-13T02:21:48.534Z,97928.97
2023-01-13T02:23:44.055Z,97927.29
2023-01-13T02:25:16.960Z,97924.54
2023-01-13T02:26:54.785Z,97924.77
2023-01-13T02:28:18.766Z,97925.50
2023-01-13T02:30:04.814Z,97920.84
2023-01-13T02:31:33.770Z,97918.87
2023-01-13T02:33:10.460Z,97916.63
2023-01-13T02:34:25.500Z,97910.66
2023-01-13T02:36:00.009Z,97911.14
2023-01-13T02:37:12.841Z,97909.11
2023-01-13T02:38:20.339Z,97905.52
2023-01-13T02:39:36.335Z,97904.52
2023-01-13T02:40:49.107Z,97910.30
2023-01-13T02:42:23.622Z,97912.16
2023-01-13T02:43:59.165Z,97908.09
2023-01-13T02:45:09.632Z,97910.23
2023-01-13T02:46:23.347Z,97912.73
2023-01-13T02:47:27.920Z,97910.23
2023-01-13T02:48:31.546Z,97910.40
2023-01-13T02:49:44.630Z,97905.30
2023-01-13T02:50:57.145Z,97907.77
2023-01-13T02:52:08.421Z,97908.30
2023-01-13T02:53:39.678Z,97907.86
2023-01-13T02:54:51.749Z,97904.82
2023-01-13T02:55:57.613Z,97904.34
2023-01-13T02:57:01.359Z,97903.69
2023-01-13T02:58:08.678Z,97903.27
2023-01-13T02:59:13.346Z,97900.91
2023-01-13T03:00:18.649Z,97898.58
2023-01-13T03:01:20.941Z,97898.44
2023-01-13T03:02:25.348Z,97897.69
2023-01-13T03:03:27.562Z,97897.96
2023-01-13T03:04:52.798Z,97896.14
2023-01-13T03:06:13.749Z,97897.89
2023-01-13T03:07:36.798Z,97888.71
2023-01-13T03:08:49.854Z,97893.09
2023-01-13T03:10:06.898Z,97890.91
2023-01-13T03:11:13.979Z,97887.80
2023-01-13T03:12:33.310Z,97888.77
2023-01-13T03:14:03.687Z,97886.31
2023-01-13T03:15:37.142Z,97884.51
2023-01-13T03:17:05.236Z,97885.80
2023-01-13T03:18:23.101Z,97882.92
2023-01-13T03:19:57.786Z,97880.67
2023-01-13T03:21:06.211Z,97882.83
2023-01-13T03:22:31.257Z,97879.50
2023-01-13T03:23:43.544Z,97884.45
2023-01-13T03:25:01.059Z,97881.56
2023-01-13T03:26:14.166Z,97879.30
2023-01-13T03:27:45.697Z,97882.79
2023-01-13T03:29:14.270Z,97883.65
2023-01-13T03:30:28.892Z,97879.63
2023-01-13T03:31:37.083Z,97882.69
2023-01-13T03:32:44.876Z,97882.69
2023-01-13T03:34:02.988Z,97884.02
2023-01-13T03:35:16.401Z,97880.27
2023-01-13T03:36:25.974Z,97881.98
2023-01-13T03:37:37.774Z,97882.15
2023-01-13T03:38:45.584Z,97878.98
2023-01-13T03:39:59.592Z,97873.91
2023-01-13T03:41:09.402Z,97878.13
2023-01-13T03:42:20.885Z,97874.66
2023-01-13T03:44:00.500Z,97874.40
2023-01-13T03:45:20.164Z,97875.09
2023-01-13T03:46:31.817Z,97878.42
2023-01-13T03:47:43.070Z,97875.54
2023-01-13T03:48:48.182Z,97876.25
2023-01-13T03:50:09.168Z,97873.15
2023-01-13T03:51:17.267Z,97871.76
2023-01-13T03:52:27.907Z,97870.23
2023-01-13T03:53:38.886Z,97871.84
2023-01-13T03:54:51.468Z,97872.39
2023-01-13T03:56:21.327Z,97871.80
2023-01-13T03:57:29.700Z,97868.16
2023-01-13T03:58:38.032Z,97872.06
2023-01-13T03:59:48.902Z,97869.08
2023-01-13T04:00:56.192Z,97868.38
2023-01-13T04:02:11.018Z,97870.20
2023-01-13T04:03:25.168Z,97865.56
2023-01-13T04:04:37.139Z,97862.42
2023-01-13T04:05:47.855Z,97867.31
2023-01-13T04:07:12.181Z,97863.52
2023-01-13T04:08:25.770Z,97859.64
2023-01-13T04:09:33.757Z,97862.06
2023-01-13T04:10:49.333Z,97861.64
2023-01-13T04:12:00.999Z,97864.21
2023-01-13T04:13:10.698Z,97868.89
2023-01-13T04:14:16.350Z,97859.77
2023-01-13T04:15:25.067Z,97859.19
2023-01-13T04:16:27.181Z,97863.40
2023-01-13T04:17:28.948Z,97862.97
2023-01-13T04:18:31.143Z,97861.52
2023-01-13T04:19:33.128Z,97866.52
2023-01-13T04:20:35.014Z,97862.02
2023-01-13T04:21:36.802Z,97861.76
2023-01-13T04:22:38.557Z,97859.40
2023-01-13T04:23:40.352Z,97859.45
2023-01-13T04:24:42.437Z,97854.42
2023-01-13T04:25:46.706Z,97860.86
2023-01-13T04:26:48.620Z,97859.52
2023-01-13T04:27:50.376Z,97854.70
2023-01-13T04:28:54.701Z,97852.14
2023-01-13T04:29:56.572Z,97854.34
2023-01-13T04:30:58.507Z,97853.81
2023-01-13T04:32:00.420Z,97856.23
2023-01-13T04:33:04.145Z,97852.73
2023-01-13T04:34:06.035Z,97856.81
2023-01-13T04:35:08.538Z,97853.98
2023-01-13T04:36:10.387Z,97856.03
2023-01-13T04:37:12.171Z,97858.27
2023-01-13T04:38:19.973Z,97857.97
2023-01-13T04:39:21.784Z,97854.95
2023-01-13T04:40:23.633Z,97856.26
2023-01-13T04:41:25.538Z,97855.45
2023-01-13T04:42:27.388Z,97855.35
2023-01-13T04:43:29.406Z,97853.16
2023-01-13T04:44:35.307Z,97855.90
2023-01-13T04:45:37.695Z,97854.73
2023-01-13T04:46:39.722Z,97856.93
2023-01-13T04:47:42.089Z,97852.89
2023-01-13T04:48:43.948Z,97858.20
2023-01-13T04:49:46.101Z,97857.98
2023-01-13T04:50:47.800Z,97860.34
2023-01-13T04:51:49.782Z,97870.75
2023-01-13T04:52:53.637Z,97857.36
2023-01-13T04:53:55.417Z,97871.30
2023-01-13T04:54:58.073Z,97876.10
2023-01-13T04:55:59.976Z,97871.77
2023-01-13T04:57:01.804Z,97870.32
2023-01-13T04:58:06.417Z,97868.39
2023-01-13T04:59:13.559Z,97871.31
2023-01-13T05:00:19.291Z,97869.45
2023-01-13T05:01:21.553Z,97872.50
2023-01-13T05:02:23.783Z,97866.60
2023-01-13T05:03:26.808Z,97864.89
2023-01-13T05:04:28.725Z,97873.05
2023-01-13T05:05:31.615Z,97872.46
2023-01-13T05:06:34.031Z,97870.58
2023-01-13T05:07:36.244Z,97870.16
2023-01-13T05:08:38.181Z,97869.04
2023-01-13T05:09:40.148Z,97871.05
2023-01-13T05:10:42.061Z,97873.55
2023-01-13T05:12:02.787Z,97872.86
2023-01-13T05:13:23.465Z,97875.60
2023-01-13T05:14:44.354Z,97878.59
2023-01-13T05:16:06.808Z,97880.02
2023-01-13T05:17:12.892Z,97878.30
2023-01-13T05:18:16.718Z,97881.17
2023-01-13T05:19:18.979Z,97883.38
2023-01-13T05:20:20.792Z,97881.33
2023-01-13T05:21:41.026Z,97883.70
2023-01-13T05:23:01.410Z,97888.25
2023-01-13T05:24:22.582Z,97884.70
2023-01-13T05:25:25.577Z,97878.20
2023-01-13T05:26:27.374Z,97871.89
2023-01-13T05:27:30.427Z,97878.91
2023-01-13T05:28:34.290Z,97880.09
2023-01-13T05:29:36.144Z,97884.69
2023-01-13T05:30:43.980Z,97878.63
2023-01-13T05:31:46.064Z,97879.27
2023-01-13T05:32:48.506Z,97886.32
2023-01-13T05:33:50.385Z,97886.65
2023-01-13T05:34:52.176Z,97888.46
2023-01-13T05:35:53.893Z,97884.44
2023-01-13T05:36:55.664Z,97887.92
2023-01-13T05:37:57.476Z,97883.96
2023-01-13T05:38:59.194Z,97885.36
2023-01-13T05:40:20.113Z,97885.29
2023-01-13T05:42:11.483Z,97890.73
2023-01-13T05:43:22.963Z,97885.21
2023-01-13T05:44:24.767Z,97885.20
2023-01-13T05:45:26.857Z,97885.48
2023-01-13T05:46:28.866Z,97881.95
2023-01-13T05:47:32.380Z,97883.54
2023-01-13T05:48:37.362Z,97884.48
2023-01-13T05:49:41.481Z,97884.38
2023-01-13T05:50:44.916Z,97886.09
2023-01-13T05:51:46.701Z,97886.05
2023-01-13T05:52:48.821Z,97881.08
2023-01-13T05:53:50.820Z,97883.81
2023-01-13T05:54:52.684Z,97883.14
2023-01-13T05:55:55.364Z,97887.30
2023-01-13T05:56:57.172Z,97883.18
2023-01-13T05:57:59.016Z,97886.46
2023-01-13T05:59:00.796Z,97883.57
2023-01-13T06:00:04.805Z,97888.48
2023-01-13T06:01:13.484Z,97882.88
2023-01-13T06:02:15.295Z,97879.98
2023-01-13T06:03:20.258Z,97882.92
2023-01-13T06:04:22.194Z,97883.94
2023-01-13T06:05:23.972Z,97882.51
2023-01-13T06:06:25.909Z,97884.26
2023-01-13T06:07:27.604Z,97883.19
2023-01-13T06:08:30.462Z,97890.09
2023-01-13T06:09:32.753Z,97887.73
2023-01-13T06:10:35.442Z,97884.76
2023-01-13T06:11:37.210Z,97887.70
2023-01-13T06:12:39.091Z,97887.01
2023-01-13T06:13:40.920Z,97885.02
2023-01-13T06:14:43.065Z,97883.07
2023-01-13T06:15:45.276Z,97885.11
2023-01-13T06:16:47.114Z,97886.83
2023-01-13T06:17:49.517Z,97882.16
2023-01-13T06:18:51.244Z,97881.58
2023-01-13T06:19:53.025Z,97880.99
2023-01-13T06:20:55.809Z,97883.69
2023-01-13T06:21:58.150Z,97879.67
2023-01-13T06:23:01.222Z,97879.61
2023-01-13T06:24:03.827Z,97883.48
2023-01-13T06:25:21.422Z,97881.05
2023-01-13T06:26:28.033Z,97884.33
2023-01-13T06:27:30.549Z,97885.23
2023-01-13T06:28:33.351Z,97880.66
2023-01-13T06:29:35.950Z,97880.07
2023-01-13T06:30:54.770Z,97883.34
2023-01-13T06:31:58.107Z,97884.10
2023-01-13T06:33:07.568Z,97886.23
2023-01-13T06:34:14.575Z,97886.55
2023-01-13T06:35:25.423Z,97887.13
2023-01-13T06:36:37.717Z,97887.61
2023-01-13T06:37:44.418Z,97891.53
2023-01-13T06:38:52.135Z,97888.25
2023-01-13T06:39:58.705Z,97889.41
2023-01-13T06:41:00.690Z,97887.00
2023-01-13T06:42:23.209Z,97888.38
2023-01-13T06:43:25.515Z,97888.87
2023-01-13T06:44:29.437Z,97890.86
2023-01-13T06:45:32.033Z,97888.66
2023-01-13T06:46:35.095Z,97889.73
2023-01-13T06:47:37.361Z,97891.24
2023-01-13T06:48:39.136Z,97890.12
2023-01-13T06:49:41.006Z,97891.09
2023-01-13T06:50:43.374Z,97894.04
2023-01-13T06:51:46.562Z,97890.43
2023-01-13T06:52:48.754Z,97891.45
2023-01-13T06:53:50.718Z,97893.61
2023-01-13T06:54:53.888Z,97888.70
2023-01-13T06:55:55.648Z,97890.63
2023-01-13T06:56:57.449Z,97889.29
2023-01-13T06:57:59.292Z,97893.04
2023-01-13T06:59:01.151Z,97896.04
2023-01-13T07:00:03.703Z,97893.52
2023-01-13T07:01:05.879Z,97893.05
2023-01-13T07:02:08.039Z,97891.44
2023-01-13T07:03:13.628Z,97892.85
2023-01-13T07:04:15.636Z,97887.79
2023-01-13T07:05:19.922Z,97890.04
2023-01-13T07:06:21.727Z,97892.07
2023-01-13T07:07:23.618Z,97889.65
2023-01-13T07:08:25.533Z,97890.57
2023-01-13T07:09:27.494Z,97884.33
2023-01-13T07:10:30.952Z,97887.00
2023-01-13T07:11:32.928Z,97883.63
2023-01-13T07:12:57.660Z,97886.05
2023-01-13T07:14:20.019Z,97888.14
2023-01-13T07:15:21.871Z,97885.84
2023-01-13T07:16:24.459Z,97884.45
2023-01-13T07:17:26.481Z,97888.52
2023-01-13T07:18:31.907Z,97895.33
2023-01-13T07:19:34.067Z,97891.42
2023-01-13T07:20:35.916Z,97889.39
2023-01-13T07:21:37.659Z,97893.77
2023-01-13T07:22:39.409Z,97895.17
2023-01-13T07:23:41.946Z,97893.13
2023-01-13T07:24:44.129Z,97891.89
2023-01-13T07:25:46.170Z,97889.63
2023-01-13T07:26:48.410Z,97889.32
2023-01-13T07:27:51.035Z,97887.89
2023-01-13T07:28:52.972Z,97890.48
2023-01-13T07:29:54.927Z,97890.14
2023-01-13T07:30:58.440Z,97890.48
2023-01-13T07:32:01.452Z,97884.85
2023-01-13T07:33:03.221Z,97884.12
2023-01-13T07:34:06.293Z,97887.39
2023-01-13T07:35:08.263Z,97888.73
2023-01-13T07:36:10.902Z,97889.42
2023-01-13T07:37:12.705Z,97890.83
2023-01-13T07:38:15.820Z,97888.13
2023-01-13T07:39:17.542Z,97888.40
2023-01-13T07:40:19.655Z,97887.86
2023-01-13T07:41:40.875Z,97884.02
2023-01-13T07:43:02.012Z,97887.71
2023-01-13T07:44:06.180Z,97890.88
2023-01-13T07:45:11.480Z,97892.87
2023-01-13T07:46:14.570Z,97887.09
2023-01-13T07:47:16.499Z,97889.19
2023-01-13T07:48:18.264Z,97886.56
2023-01-13T07:49:20.360Z,97882.08
2023-01-13T07:50:23.755Z,97887.98
2023-01-13T07:51:25.711Z,97888.41
2023-01-13T07:52:27.485Z,97884.55
2023-01-13T07:53:29.367Z,97889.17
2023-01-13T07:54:40.737Z,97887.49
2023-01-13T07:55:44.215Z,97887.77
2023-01-13T07:56:46.588Z,97886.96
2023-01-13T07:57:48.551Z,97889.55
2023-01-13T07:58:51.219Z,97882.73
2023-01-13T07:59:53.040Z,97883.66
2023-01-13T08:00:56.461Z,97883.81
2023-01-13T08:01:58.629Z,97885.33
2023-01-13T08:03:00.749Z,97885.01
2023-01-13T08:04:02.545Z,97883.89
2023-01-13T08:05:04.643Z,97883.41
2023-01-13T08:06:07.220Z,97881.08
2023-01-13T08:07:09.105Z,97880.11
2023-01-13T08:08:10.889Z,97882.09
2023-01-13T08:09:12.827Z,97884.94
2023-01-13T08:10:14.720Z,97889.86
2023-01-13T08:11:17.195Z,97888.69
2023-01-13T08:12:37.937Z,97888.54
2023-01-13T08:13:40.088Z,97894.28
2023-01-13T08:14:42.534Z,97893.42
2023-01-13T08:15:45.816Z,97890.23
2023-01-13T08:16:47.735Z,97891.94
2023-01-13T08:17:49.747Z,97894.93
2023-01-13T08:18:51.760Z,97900.95
2023-01-13T08:19:53.534Z,97896.98
2023-01-13T08:20:55.412Z,97896.89
2023-01-13T08:21:57.231Z,97894.36
2023-01-13T08:23:00.618Z,97897.36
2023-01-13T08:24:02.442Z,97896.11
2023-01-13T08:25:04.834Z,97897.57
2023-01-13T08:26:10.517Z,97895.92
2023-01-13T08:27:12.417Z,97896.30
2023-01-13T08:28:16.079Z,97891.05
2023-01-13T08:29:18.132Z,97897.29
2023-01-13T08:30:20.235Z,97898.16
2023-01-13T08:31:22.355Z,97898.84
2023-01-13T08:32:24.155Z,97898.83
2023-01-13T08:33:26.251Z,97898.69
2023-01-13T08:34:28.203Z,97897.04
2023-01-13T08:35:29.980Z,97895.65
2023-01-13T08:36:31.844Z,97890.73
2023-01-13T08:37:33.703Z,97894.05
2023-01-13T08:38:36.954Z,97894.59
2023-01-13T08:39:38.824Z,97891.70
2023-01-13T08:40:40.897Z,97894.83
2023-01-13T08:41:56.084Z,97894.73
2023-01-13T08:42:59.234Z,97894.27
2023-01-13T08:44:01.282Z,97896.05
2023-01-13T08:45:04.441Z,97898.04
2023-01-13T08:46:06.881Z,97900.56
2023-01-13T08:47:08.684Z,97896.08
2023-01-13T08:48:10.992Z,97901.02
2023-01-13T08:49:13.146Z,97899.69
2023-01-13T08:50:15.576Z,97901.63
2023-01-13T08:51:17.337Z,97895.63
2023-01-13T08:52:19.838Z,97896.64
2023-01-13T08:53:21.639Z,97899.23
2023-01-13T08:54:23.791Z,97899.19
2023-01-13T08:55:25.787Z,97897.00
2023-01-13T08:56:29.914Z,97899.64
2023-01-13T08:57:32.888Z,97896.80
2023-01-13T08:58:34.829Z,97898.80
2023-01-13T08:59:36.772Z,97892.27
2023-01-13T09:00:38.932Z,97894.20
2023-01-13T09:01:41.519Z,97894.86
2023-01-13T09:02:45.226Z,97896.27
2023-01-13T09:03:47.137Z,97896.38
2023-01-13T09:04:50.272Z,97891.14
2023-01-13T09:05:52.728Z,97891.29
2023-01-13T09:06:56.087Z,97891.84
2023-01-13T09:07:57.909Z,97897.84
2023-01-13T09:09:00.323Z,97894.33
2023-01-13T09:10:03.569Z,97895.25
2023-01-13T09:11:25.743Z,97898.42
2023-01-13T09:12:47.422Z,97895.79
2023-01-13T09:13:49.271Z,97894.79
2023-01-13T09:14:52.550Z,97892.70
2023-01-13T09:15:56.885Z,97898.13
2023-01-13T09:17:00.562Z,97895.67
2023-01-13T09:18:02.680Z,97897.08
2023-01-13T09:19:04.447Z,97900.63
2023-01-13T09:20:06.522Z,97900.10
2023-01-13T09:21:11.498Z,97896.73
2023-01-13T09:22:17.547Z,97898.23
2023-01-13T09:23:19.749Z,97900.56
2023-01-13T09:24:23.246Z,97901.46
2023-01-13T09:25:25.079Z,97901.95
2023-01-13T09:26:27.208Z,97899.92
2023-01-13T09:27:29.148Z,97901.81
2023-01-13T09:28:32.665Z,97899.39
2023-01-13T09:29:34.657Z,97896.44
2023-01-13T09:30:37.842Z,97895.09
2023-01-13T09:31:42.344Z,97892.84
2023-01-13T09:32:46.203Z,97884.95
2023-01-13T09:34:07.096Z,97884.63
2023-01-13T09:35:09.393Z,97883.88
2023-01-13T09:36:11.285Z,97888.08
2023-01-13T09:37:13.137Z,97893.86
2023-01-13T09:38:14.934Z,97889.73
2023-01-13T09:39:17.376Z,97888.44
2023-01-13T09:40:22.840Z,97884.16
2023-01-13T09:41:46.783Z,97883.24
2023-01-13T09:43:21.513Z,97886.74
2023-01-13T09:44:47.059Z,97885.61
2023-01-13T09:46:05.002Z,97891.05
2023-01-13T09:47:35.828Z,97892.71
2023-01-13T09:48:52.355Z,97892.38
2023-01-13T09:50:21.222Z,97888.31
2023-01-13T09:51:45.921Z,97888.90
2023-01-13T09:52:48.411Z,97887.14
2023-01-13T09:53:59.202Z,97885.45
2023-01-13T09:55:11.455Z,97886.54
2023-01-13T09:56:13.574Z,97884.50
2023-01-13T09:57:19.638Z,97883.98
2023-01-13T09:58:21.684Z,97883.70
2023-01-13T09:59:32.613Z,97885.10
2023-01-13T10:00:51.154Z,97881.50
2023-01-13T10:02:11.839Z,97880.42
2023-01-13T10:03:32.669Z,97883.48
2023-01-13T10:04:34.722Z,97879.63
2023-01-13T10:05:40.284Z,97876.08
2023-01-13T10:06:49.771Z,97876.84
2023-01-13T10:07:58.752Z,97876.84
2023-01-13T10:09:00.727Z,97875.23
2023-01-13T10:10:04.579Z,97879.47
2023-01-13T10:11:33.156Z,97877.44
2023-01-13T10:12:54.025Z,97882.65
2023-01-13T10:14:00.891Z,97882.91
2023-01-13T10:15:02.861Z,97885.02
2023-01-13T10:16:24.986Z,97875.45
2023-01-13T10:17:59.145Z,97876.95
2023-01-13T10:19:11.816Z,97875.16
2023-01-13T10:20:26.514Z,97874.15
2023-01-13T10:21:51.863Z,97874.59
2023-01-13T10:23:34.627Z,97874.16
2023-01-13T10:25:02.828Z,97872.16
2023-01-13T10:26:30.068Z,97872.42
2023-01-13T10:27:37.807Z,97873.56
2023-01-13T10:28:39.670Z,97870.35
2023-01-13T10:29:41.952Z,97871.64
2023-01-13T10:30:46.989Z,97871.58
2023-01-13T10:31:48.902Z,97872.65
2023-01-13T10:32:57.921Z,97870.94
2023-01-13T10:34:04.244Z,97876.80
2023-01-13T10:35:06.295Z,97874.52
2023-01-13T10:36:23.215Z,97870.02
2023-01-13T10:37:28.275Z,97870.55
2023-01-13T10:38:47.377Z,97870.50
2023-01-13T10:39:51.941Z,97870.67
2023-01-13T10:40:55.700Z,97874.00
2023-01-13T10:42:13.994Z,97870.39
2023-01-13T10:43:16.080Z,97872.55
2023-01-13T10:44:19.392Z,97871.45
2023-01-13T10:45:25.710Z,97869.80
2023-01-13T10:46:30.420Z,97875.30
2023-01-13T10:47:36.151Z,97866.06
2023-01-13T10:48:43.588Z,97862.90
2023-01-13T10:49:59.432Z,97862.84
2023-01-13T10:51:28.132Z,97863.16
2023-01-13T10:52:32.981Z,97865.57
2023-01-13T10:53:46.561Z,97859.94
2023-01-13T10:54:55.703Z,97863.58
2023-01-13T10:56:03.570Z,97860.04
2023-01-13T10:57:27.059Z,97862.45
2023-01-13T10:58:29.351Z,97864.70
2023-01-13T10:59:31.687Z,97860.84
2023-01-13T11:00:35.198Z,97861.10
2023-01-13T11:01:37.796Z,97861.15
2023-01-13T11:02:39.914Z,97862.40
2023-01-13T11:03:44.619Z,97861.65
2023-01-13T11:04:55.770Z,97861.33
2023-01-13T11:06:00.506Z,97858.11
2023-01-13T11:07:04.770Z,97855.74
2023-01-13T11:08:18.462Z,97861.94
2023-01-13T11:09:22.646Z,97855.48
2023-01-13T11:10:27.548Z,97856.78
2023-01-13T11:11:35.265Z,97856.86
2023-01-13T11:12:52.591Z,97859.44
2023-01-13T11:14:21.225Z,97857.94
2023-01-13T11:15:54.108Z,97851.29
2023-01-13T11:17:05.397Z,97850.38
2023-01-13T11:18:36.710Z,97851.30
2023-01-13T11:19:48.078Z,97853.24
2023-01-13T11:20:53.315Z,97849.32
2023-01-13T11:22:11.189Z,97851.95
2023-01-13T11:23:22.773Z,97847.88
2023-01-13T11:24:52.742Z,97846.85
2023-01-13T11:26:14.695Z,97846.52
2023-01-13T11:27:52.781Z,97848.47
2023-01-13T11:29:11.171Z,97848.04
2023-01-13T11:30:23.234Z,97848.84
2023-01-13T11:31:49.543Z,97847.23
2023-01-13T11:33:09.721Z,97848.69
2023-01-13T11:34:17.642Z,97851.59
2023-01-13T11:35:24.279Z,97848.00
2023-01-13T11:36:38.896Z,97847.95
2023-01-13T11:37:51.120Z,97847.30
2023-01-13T11:38:57.786Z,97844.77
2023-01-13T11:40:14.605Z,97841.87
2023-01-13T11:41:25.352Z,97846.59
2023-01-13T11:43:02.004Z,97839.98
2023-01-13T11:44:24.015Z,97835.31
2023-01-13T11:45:48.316Z,97834.83
2023-01-13T11:46:53.867Z,97835.59
2023-01-13T11:48:00.821Z,97834.83
2023-01-13T11:49:05.043Z,97831.03
2023-01-13T11:50:18.640Z,97834.14
2023-01-13T11:51:33.663Z,97832.15
2023-01-13T11:52:51.102Z,97833.98
2023-01-13T11:54:04.951Z,97830.59
2023-01-13T11:55:47.033Z,97828.12
2023-01-13T11:57:03.807Z,97828.66
2023-01-13T11:58:31.805Z,97828.71
2023-01-13T11:59:58.583Z,97830.77
2023-01-13T12:01:24.619Z,97830.27
2023-01-13T12:02:54.480Z,97830.53
2023-01-13T12:04:17.873Z,97821.64
2023-01-13T12:05:36.014Z,97828.45
2023-01-13T12:06:41.850Z,97825.34
2023-01-13T12:08:12.713Z,97826.30
2023-01-13T12:09:45.605Z,97824.25
2023-01-13T12:11:03.299Z,97829.94
2023-01-13T12:12:41.633Z,97831.17
2023-01-13T12:14:13.747Z,97830.59
2023-01-13T12:15:36.127Z,97827.84
2023-01-13T12:16:48.966Z,97827.52
2023-01-13T12:18:12.468Z,97825.21
2023-01-13T12:19:28.232Z,97826.97
2023-01-13T12:20:33.068Z,97824.71
2023-01-13T12:21:51.976Z,97820.27
2023-01-13T12:23:02.292Z,97821.11
2023-01-13T12:24:25.513Z,97821.16
2023-01-13T12:25:40.420Z,97822.29
2023-01-13T12:26:51.345Z,97824.49
2023-01-13T12:28:02.179Z,97821.69
2023-01-13T12:29:11.509Z,97825.50
2023-01-13T12:30:38.294Z,97824.88
2023-01-13T12:31:43.521Z,97819.61
2023-01-13T12:32:48.066Z,97818.48
2023-01-13T12:34:25.942Z,97819.55
2023-01-13T12:35:42.395Z,97817.57
2023-01-13T12:37:17.051Z,97819.89
2023-01-13T12:38:37.589Z,97821.13
2023-01-13T12:40:05.165Z,97820.97
2023-01-13T12:41:30.791Z,97822.70
2023-01-13T12:43:07.936Z,97822.33
2023-01-13T12:44:20.569Z,97823.27
2023-01-13T12:45:29.013Z,97824.99
2023-01-13T12:46:31.072Z,97820.33
2023-01-13T12:47:45.508Z,97818.77
2023-01-13T12:48:59.619Z,97823.23
2023-01-13T12:50:26.173Z,97823.02
2023-01-13T12:51:33.828Z,97824.09
2023-01-13T12:52:44.243Z,97823.59
2023-01-13T12:53:46.387Z,97825.73
2023-01-13T12:54:48.192Z,97823.32
2023-01-13T12:55:53.219Z,97823.28
2023-01-13T12:56:55.496Z,97824.66
2023-01-13T12:58:08.349Z,97821.02
2023-01-13T12:59:34.414Z,97820.33
2023-01-13T13:00:42.247Z,97820.64
2023-01-13T13:01:47.424Z,97822.14
2023-01-13T13:03:09.318Z,97822.41
2023-01-13T13:04:15.110Z,97823.13
2023-01-13T13:05:23.154Z,97824.56
2023-01-13T13:06:31.180Z,97824.77
2023-01-13T13:07:43.711Z,97828.43
2023-01-13T13:09:28.666Z,97825.58
2023-01-13T13:10:36.959Z,97829.61
2023-01-13T13:12:03.898Z,97830.36
2023-01-13T13:13:39.521Z,97830.63
2023-01-13T13:14:41.431Z,97828.10
2023-01-13T13:15:45.204Z,97829.29
2023-01-13T13:16:53.349Z,97826.75
2023-01-13T13:18:17.434Z,97828.23
2023-01-13T13:19:20.256Z,97825.64
2023-01-13T13:20:58.412Z,97820.86
2023-01-13T13:22:09.927Z,97826.23
2023-01-13T13:23:32.820Z,97827.03
2023-01-13T13:24:35.052Z,97827.85
2023-01-13T13:25:36.858Z,97826.18
2023-01-13T13:26:45.981Z,97831.65
2023-01-13T13:28:01.792Z,97831.34